Time;durP1;ratioP1;P1;durP2;ratioP2;P2;SDS_P1;SDS_P2;PMS_P1;PMS_P2;Temp;Humidity;BMP_temperature;BMP_pressure;BME280_temperature;BME280_humidity;BME280_pressure;Samples;Min_cycle;Max_cycle;Signal;HPM_P1;HPM_P2
2023/12/29 00:02:08;;;;;;;11.80;11.40;;;;;;;-141.02;100.00;41200.72;5093951;28;20204;-71
2023/12/29 00:04:35;;;;;;;11.40;11.10;;;;;;;-141.02;100.00;41287.06;5093695;28;20660;-72
2023/12/29 00:07:02;;;;;;;11.83;11.43;;;;;;;-141.02;100.00;41661.25;5093439;28;20664;-70
2023/12/29 00:09:29;;;;;;;11.33;11.03;;;;;;;-141.02;100.00;42098.84;5093760;28;20220;-71
2023/12/29 00:11:56;;;;;;;10.80;10.50;;;;;;;-141.02;100.00;42114.19;5093628;28;20194;-71
2023/12/29 00:14:23;;;;;;;11.10;10.80;;;;;;;-141.02;100.00;42350.28;5093301;28;20573;-71
2023/12/29 00:16:50;;;;;;;11.37;11.07;;;;;;;-141.02;100.00;42286.94;5093494;28;20233;-72
2023/12/29 00:19:19;;;;;;;10.80;10.50;;;;;;;-141.02;100.00;42102.66;5093498;28;20198;-71
2023/12/29 00:21:46;;;;;;;11.10;10.80;;;;;;;-141.02;100.00;41933.78;5093839;28;20276;-71
2023/12/29 00:24:13;;;;;;;10.67;10.37;;;;;;;-141.02;100.00;42179.44;5093420;28;20631;-71
2023/12/29 00:26:40;;;;;;;11.43;11.13;;;;;;;-141.02;100.00;42127.63;5093525;28;20228;-71
2023/12/29 00:29:07;;;;;;;10.10;9.80;;;;;;;-141.02;100.00;42000.94;5093175;28;20313;-72
2023/12/29 00:31:34;;;;;;;10.80;10.50;;;;;;;-141.02;100.00;42158.34;5093313;28;20193;-72
2023/12/29 00:34:01;;;;;;;10.77;10.47;;;;;;;-141.02;100.00;42292.69;5092842;28;20279;-72
2023/12/29 00:36:29;;;;;;;10.50;10.20;;;;;;;-141.02;100.00;42421.28;5092869;28;20569;-71
2023/12/29 00:38:56;;;;;;;11.10;10.80;;;;;;;-141.02;100.00;42198.63;5093074;28;20198;-72
2023/12/29 00:41:23;;;;;;;11.67;11.27;;;;;;;-141.02;100.00;42540.31;5092798;28;20194;-71
2023/12/29 00:43:50;;;;;;;11.63;11.23;;;;;;;-141.02;100.00;42809.06;5092746;28;20624;-71
2023/12/29 00:46:17;;;;;;;10.87;10.57;;;;;;;-141.02;100.00;43139.28;5093001;28;20198;-71
2023/12/29 00:48:43;;;;;;;10.67;10.37;;;;;;;-141.02;100.00;43258.31;5093031;28;20194;-71
2023/12/29 00:51:10;;;;;;;10.33;10.03;;;;;;;-141.02;100.00;43085.50;5092946;28;20190;-71
2023/12/29 00:53:39;;;;;;;10.20;9.90;;;;;;;-141.02;100.00;43014.47;5092848;28;20235;-72
2023/12/29 00:56:11;;;;;;;10.60;10.30;;;;;;;-141.02;100.00;42908.88;5093664;28;20281;-71
2023/12/29 00:58:38;;;;;;;10.90;10.60;;;;;;;-141.02;100.00;43158.47;5092821;28;20251;-71
2023/12/29 01:01:08;;;;;;;10.80;10.50;;;;;;;-141.02;100.00;43164.22;5092465;28;20659;-71
2023/12/29 01:03:35;;;;;;;11.17;10.87;;;;;;;-141.02;100.00;43352.38;5092486;28;20709;-71
2023/12/29 01:06:02;;;;;;;10.93;10.63;;;;;;;-141.02;100.00;43173.81;5092849;28;20281;-70
2023/12/29 01:08:29;;;;;;;10.70;10.40;;;;;;;-141.02;100.00;43296.72;5092441;28;20721;-70
2023/12/29 01:10:57;;;;;;;11.07;10.77;;;;;;;-141.02;100.00;43315.91;5092632;28;20212;-70
2023/12/29 01:13:24;;;;;;;11.57;11.17;;;;;;;-141.02;100.00;43285.19;5092256;28;20231;-72
2023/12/29 01:15:51;;;;;;;11.13;10.83;;;;;;;-141.02;100.00;43550.16;5092256;28;20655;-71
2023/12/29 01:18:18;;;;;;;11.13;10.83;;;;;;;-141.02;100.00;43790.19;5092462;28;20200;-71
2023/12/29 01:20:45;;;;;;;12.17;11.77;;;;;;;-141.02;100.00;43832.44;5092276;28;20211;-72
2023/12/29 01:23:12;;;;;;;10.70;10.40;;;;;;;-141.02;100.00;43530.97;5092254;28;20679;-71
2023/12/29 01:25:39;;;;;;;11.70;11.40;;;;;;;-141.02;100.00;43434.94;5092130;28;20690;-71
2023/12/29 01:28:07;;;;;;;12.43;12.03;;;;;;;-141.02;100.00;43765.22;5092057;28;20325;-71
2023/12/29 01:30:34;;;;;;;13.17;12.77;;;;;;;-141.02;100.00;44281.81;5092034;28;20652;-71
2023/12/29 01:33:01;;;;;;;13.90;13.50;;;;;;;-141.02;100.00;44913.75;5092267;28;20430;-72
2023/12/29 01:35:28;;;;;;;13.70;13.30;;;;;;;-141.02;100.00;45566.94;5092614;28;20280;-71
2023/12/29 01:37:56;;;;;;;13.00;12.60;;;;;;;-141.02;100.00;46339.38;5091606;28;20189;-71
2023/12/29 01:40:23;;;;;;;12.47;12.07;;;;;;;-141.02;100.00;47310.00;5092268;28;20564;-72
2023/12/29 01:42:50;;;;;;;11.10;10.80;;;;;;;-141.02;100.00;47925.19;5092578;28;20653;-72
2023/12/29 01:45:23;;;;;;;11.27;10.97;;;;;;;-141.02;100.00;49115.53;5092276;28;20232;-71
2023/12/29 01:47:51;;;;;;;10.57;10.27;;;;;;;-141.02;100.00;50481.38;5092247;28;20194;-72
2023/12/29 01:50:20;;;;;;;11.20;10.90;;;;;;;-141.02;100.00;51963.25;5092247;28;20194;-73
2023/12/29 01:52:49;;;;;;;10.40;10.10;;;;;;;-141.02;100.00;53018.28;5092092;28;20225;-72
2023/12/29 01:55:19;;;;;;;11.30;11.00;;;;;;;-141.02;100.00;53345.66;5091816;28;20679;-71
2023/12/29 01:57:47;;;;;;;11.27;10.97;;;;;;;-141.02;100.00;53120.34;5092128;28;20666;-71
2023/12/29 02:00:16;;;;;;;11.17;10.87;;;;;;;-141.02;100.00;53160.78;5092117;28;20208;-71
2023/12/29 02:02:45;;;;;;;11.80;11.50;;;;;;;-141.02;100.00;53865.63;5092109;28;20286;-71
2023/12/29 02:05:15;;;;;;;10.50;10.20;;;;;;;-141.02;100.00;54483.94;5074270;28;20190;-71
2023/12/29 02:07:43;;;;;;;11.47;11.17;;;;;;;-141.02;100.00;55568.69;5092291;28;20248;-71
2023/12/29 02:10:13;;;;;;;11.10;10.80;;;;;;;-141.02;100.00;55894.34;5091941;28;20190;-71
2023/12/29 02:12:40;;;;;;;11.30;11.00;;;;;;;-141.02;100.00;56482.19;5092142;28;20190;-71
2023/12/29 02:15:08;;;;;;;11.47;11.17;;;;;;;-141.02;100.00;57000.75;5091941;28;20267;-71
2023/12/29 02:17:41;;;;;;;11.30;11.00;;;;;;;-141.02;100.00;57253.28;5091980;28;20224;-71
2023/12/29 02:20:10;;;;;;;11.77;11.47;;;;;;;-141.02;100.00;57006.53;5091936;28;20269;-71
2023/12/29 02:22:37;;;;;;;12.23;11.83;;;;;;;-141.02;100.00;56505.31;5091577;28;20198;-71
2023/12/29 02:25:06;;;;;;;12.57;12.17;;;;;;;-141.02;100.00;56663.38;5091840;28;20679;-71
2023/12/29 02:27:43;;;;;;;11.93;11.53;;;;;;;-141.02;100.00;58981.19;5091627;28;20265;-71
2023/12/29 02:30:26;;;;;;;12.10;11.70;;;;;;;-141.02;100.00;59475.03;5091586;28;20667;-71
2023/12/29 02:33:00;;;;;;;11.53;11.23;;;;;;;-141.02;100.00;59228.09;5091989;28;20256;-72
2023/12/29 02:35:30;;;;;;;12.27;11.87;;;;;;;-141.02;100.00;58981.19;5092675;28;20197;-71
2023/12/29 02:37:58;;;;;;;11.87;11.50;;;;;;;-141.02;100.00;58981.19;5092011;28;20198;-72
2023/12/29 02:40:27;;;;;;;12.13;11.73;;;;;;;-141.02;100.00;60462.94;5091409;28;20284;-71
2023/12/29 02:42:53;;;;;;;11.70;11.40;;;;;;;-141.02;100.00;61204.03;5091659;28;20281;-71
2023/12/29 02:45:21;;;;;;;11.10;10.80;;;;;;;-141.02;100.00;62192.44;5091424;28;20197;-70
2023/12/29 02:47:49;;;;;;;10.57;10.27;;;;;;;-141.02;100.00;62192.44;5091671;28;20194;-72
2023/12/29 02:50:16;;;;;;;11.23;10.93;;;;;;;-141.02;100.00;62192.44;5093998;28;20194;-72
2023/12/29 02:52:43;;;;;;;11.50;11.20;;;;;;;-141.02;100.00;62686.75;5094833;28;20205;-72
2023/12/29 02:55:11;;;;;;;10.40;10.10;;;;;;;-141.02;100.00;61945.31;5094877;28;20190;-71
2023/12/29 02:57:39;;;;;;;11.83;11.47;;;;;;;-141.02;100.00;61945.31;5095063;28;20200;-72
2023/12/29 03:00:07;;;;;;;11.87;11.47;;;;;;;-141.02;100.00;61698.22;5095133;28;20272;-73
2023/12/29 03:02:34;;;;;;;11.07;10.77;;;;;;;-141.02;100.00;61204.03;5094969;28;20202;-71
2023/12/29 03:05:01;;;;;;;13.33;12.93;;;;;;;-141.02;100.00;61945.31;5095033;28;20197;-73
2023/12/29 03:07:28;;;;;;;11.57;11.27;;;;;;;-141.02;100.00;62192.44;5094653;28;20636;-72
2023/12/29 03:09:55;;;;;;;11.83;11.53;;;;;;;-141.02;100.00;62439.59;5094892;28;20285;-73
2023/12/29 03:12:22;;;;;;;12.60;12.20;;;;;;;-141.02;100.00;62439.59;5094595;28;20289;-72
2023/12/29 03:14:51;;;;;;;11.60;11.30;;;;;;;-141.02;100.00;62933.94;5094381;28;20307;-72
2023/12/29 03:17:18;;;;;;;11.90;11.53;;;;;;;-141.02;100.00;62192.44;5094832;28;20194;-74
2023/12/29 03:19:45;;;;;;;12.87;12.47;;;;;;;-141.02;100.00;61698.22;5094941;28;20198;-74
2023/12/29 03:22:12;;;;;;;13.27;12.87;;;;;;;-141.02;100.00;62439.59;5094854;28;20289;-75
2023/12/29 03:24:42;;;;;;;12.87;12.47;;;;;;;-141.02;100.00;62439.59;5094679;28;20204;-73
2023/12/29 03:27:09;;;;;;;12.63;12.23;;;;;;;-141.02;100.00;63181.16;5094370;28;20280;-74
2023/12/29 03:29:36;;;;;;;12.77;12.37;;;;;;;-141.02;100.00;63181.16;5094621;28;20677;-74
2023/12/29 03:32:07;;;;;;;13.27;12.87;;;;;;;-141.02;100.00;62933.94;5094102;28;20285;-74
2023/12/29 03:34:34;;;;;;;13.37;12.97;;;;;;;-141.02;100.00;62192.44;5094355;28;20213;-73
2023/12/29 03:37:01;;;;;;;14.50;14.00;;;;;;;-141.02;100.00;62439.59;5094350;28;20280;-74
2023/12/29 03:39:27;;;;;;;14.50;14.00;;;;;;;-141.02;100.00;62933.94;5094351;28;20632;-73
2023/12/29 03:41:54;;;;;;;15.13;14.63;;;;;;;-141.02;100.00;63181.16;5094318;28;20194;-74
2023/12/29 03:44:21;;;;;;;14.60;14.10;;;;;;;-141.02;100.00;63428.38;5094456;28;20200;-73
2023/12/29 03:46:49;;;;;;;14.23;13.73;;;;;;;-141.02;100.00;63675.59;5093898;28;20285;-71
2023/12/29 03:49:17;;;;;;;13.63;13.23;;;;;;;-141.02;100.00;63675.59;5094117;28;20193;-73
2023/12/29 03:51:44;;;;;;;14.40;13.90;;;;;;;-141.02;100.00;64170.13;5094134;28;20198;-74
2023/12/29 03:54:11;;;;;;;14.40;13.90;;;;;;;-141.02;100.00;64912.06;5094310;28;20229;-72
2023/12/29 03:56:38;;;;;;;16.03;15.43;;;;;;;-141.02;100.00;65406.75;5093968;28;20189;-72
2023/12/29 03:59:05;;;;;;;12.00;11.70;;;;;;;-141.02;100.00;65654.13;5093643;28;20651;-72
2023/12/29 04:01:35;;;;;;;14.67;14.17;;;;;;;-141.02;100.00;65901.53;5093592;28;20196;-71
2023/12/29 04:04:02;;;;;;;13.77;13.27;;;;;;;-141.02;100.00;66148.94;5093581;28;20196;-71
2023/12/29 04:06:31;;;;;;;13.97;13.57;;;;;;;-141.02;100.00;65406.75;5093509;28;20197;-71
2023/12/29 04:08:59;;;;;;;15.00;14.50;;;;;;;-141.02;100.00;66396.38;5093813;28;20197;-71
2023/12/29 04:11:25;;;;;;;14.17;13.77;;;;;;;-141.02;100.00;66643.84;5093726;28;20202;-70
2023/12/29 04:13:52;;;;;;;14.77;14.27;;;;;;;-141.02;100.00;66643.84;5093610;28;20240;-70
2023/12/29 04:16:19;;;;;;;15.43;14.93;;;;;;;-141.02;100.00;66891.31;5093592;28;20194;-70
2023/12/29 04:18:46;;;;;;;13.40;13.00;;;;;;;-141.02;100.00;66643.84;5093765;28;20200;-70
2023/12/29 04:21:15;;;;;;;11.73;11.43;;;;;;;-141.02;100.00;66643.84;5093222;28;20200;-70
2023/12/29 04:23:43;;;;;;;13.20;12.80;;;;;;;-141.02;100.00;66891.31;5093187;28;20204;-70
2023/12/29 04:26:10;;;;;;;13.63;13.23;;;;;;;-141.02;100.00;67386.28;5093383;28;20194;-69
2023/12/29 04:28:37;;;;;;;12.30;11.90;;;;;;;-141.02;100.00;67386.28;5093024;28;20317;-69
2023/12/29 04:31:04;;;;;;;12.30;11.90;;;;;;;-141.02;100.00;67881.38;5093001;28;20664;-69
2023/12/29 04:33:31;;;;;;;12.20;11.80;;;;;;;-141.02;100.00;67881.38;5093220;28;20197;-69
2023/12/29 04:35:58;;;;;;;12.43;12.03;;;;;;;-141.02;100.00;68376.50;5092980;28;20660;-69
2023/12/29 04:38:25;;;;;;;12.57;12.17;;;;;;;-141.02;100.00;68376.50;5093115;28;20743;-69
2023/12/29 04:40:53;;;;;;;12.43;12.03;;;;;;;-141.02;100.00;68871.72;5092858;28;20682;-69
2023/12/29 04:43:20;;;;;;;13.30;12.90;;;;;;;-141.02;100.00;68871.72;5093075;28;20219;-69
2023/12/29 04:45:47;;;;;;;13.00;12.60;;;;;;;-141.02;100.00;68871.72;5092785;28;20672;-68
2023/12/29 04:48:14;;;;;;;12.03;11.70;;;;;;;-141.02;100.00;68871.72;5092758;28;20284;-68
2023/12/29 04:50:41;;;;;;;12.40;12.00;;;;;;;-141.02;100.00;68624.09;5093048;28;20197;-68
2023/12/29 04:53:08;;;;;;;13.13;12.73;;;;;;;-141.02;100.00;68376.50;5093009;28;20196;-68
2023/12/29 04:55:35;;;;;;;13.10;12.70;;;;;;;-141.02;100.00;68624.09;5092582;28;20233;-68
2023/12/29 04:58:03;;;;;;;12.67;12.27;;;;;;;-141.02;100.00;68871.72;5092548;28;20194;-68
2023/12/29 05:00:30;;;;;;;12.70;12.30;;;;;;;-141.02;100.00;68871.72;5092833;28;20363;-68
2023/12/29 05:02:57;;;;;;;12.30;12.00;;;;;;;-141.02;100.00;69119.34;5092482;28;20652;-67
2023/12/29 05:05:24;;;;;;;12.20;11.90;;;;;;;-141.02;100.00;70110.03;5092775;28;20197;-67
2023/12/29 05:07:51;;;;;;;13.10;12.70;;;;;;;-141.02;100.00;69862.34;5092685;28;20273;-67
2023/12/29 05:10:18;;;;;;;13.13;12.73;;;;;;;-141.02;100.00;70605.50;5092630;28;20194;-67
2023/12/29 05:12:45;;;;;;;11.27;10.97;;;;;;;-141.02;100.00;71101.03;5092494;28;20292;-67
2023/12/29 05:15:13;;;;;;;11.33;11.03;;;;;;;-141.02;100.00;71101.03;5092584;28;20231;-67
2023/12/29 05:17:40;;;;;;;11.20;10.90;;;;;;;-141.02;100.00;71101.03;5092264;28;20194;-66
2023/12/29 05:20:08;;;;;;;11.23;10.93;;;;;;;-141.02;100.00;70853.25;5092440;28;20659;-66
2023/12/29 05:22:35;;;;;;;11.23;10.93;;;;;;;-141.02;100.00;70605.50;5093063;28;20204;-66
2023/12/29 05:25:03;;;;;;;11.23;10.93;;;;;;;-141.02;100.00;70357.75;5092200;28;20190;-66
2023/12/29 05:27:30;;;;;;;11.53;11.23;;;;;;;-141.02;100.00;70357.75;5092202;28;20316;-66
2023/12/29 05:29:57;;;;;;;11.23;10.93;;;;;;;-141.02;100.00;70357.75;5092151;28;20557;-66
2023/12/29 05:32:25;;;;;;;10.37;10.07;;;;;;;-141.02;100.00;69862.34;5092078;28;20194;-66
2023/12/29 05:34:52;;;;;;;9.90;9.60;;;;;;;-141.02;100.00;69862.34;5092213;28;20316;-66
2023/12/29 05:37:19;;;;;;;9.23;9.03;;;;;;;-141.02;100.00;70357.75;5091982;28;20280;-66
2023/12/29 05:39:46;;;;;;;9.77;9.47;;;;;;;-141.02;100.00;70605.50;5092028;28;20244;-67
2023/12/29 05:42:14;;;;;;;10.80;10.50;;;;;;;-141.02;100.00;71101.03;5092309;28;20190;-66
2023/12/29 05:44:41;;;;;;;8.97;8.77;;;;;;;-141.02;100.00;72092.31;5092237;28;20706;-66
2023/12/29 05:47:08;;;;;;;10.37;10.07;;;;;;;-141.02;100.00;73083.88;5091917;28;20306;-66
2023/12/29 05:49:39;;;;;;;8.43;8.23;;;;;;;-141.02;100.00;73827.72;5092157;28;20220;-66
2023/12/29 05:52:06;;;;;;;9.00;8.80;;;;;;;-141.02;100.00;74075.72;5092272;28;20229;-66
2023/12/29 05:54:33;;;;;;;9.03;8.83;;;;;;;-141.02;100.00;74819.81;5092052;28;20255;-66
2023/12/29 05:57:00;;;;;;;9.00;8.80;;;;;;;-141.02;100.00;75315.94;5092179;28;20225;-65
2023/12/29 05:59:27;;;;;;;9.93;9.63;;;;;;;-141.02;100.00;75564.03;5092149;28;20264;-65
2023/12/29 06:01:54;;;;;;;10.43;10.13;;;;;;;-141.02;100.00;75564.03;5092062;28;20198;-66
2023/12/29 06:04:21;;;;;;;10.43;10.13;;;;;;;-141.02;100.00;76060.28;5092127;28;20277;-65
2023/12/29 06:06:50;;;;;;;10.03;9.73;;;;;;;-141.02;100.00;76308.44;5091727;28;20234;-65
2023/12/29 06:09:17;;;;;;;10.50;10.20;;;;;;;-141.02;100.00;76556.59;5091765;28;20194;-65
2023/12/29 06:11:44;;;;;;;10.50;10.20;;;;;;;-141.02;100.00;77053.00;5092052;28;20621;-65
2023/12/29 06:14:11;;;;;;;10.30;10.00;;;;;;;-141.02;100.00;78294.28;5091916;28;20257;-65
2023/12/29 06:16:38;;;;;;;10.00;9.70;;;;;;;-141.02;100.00;79536.03;5091914;28;20190;-65
2023/12/29 06:19:05;;;;;;;10.77;10.47;;;;;;;-141.02;100.00;80281.31;5091850;28;20225;-65
2023/12/29 06:21:32;;;;;;;10.60;10.30;;;;;;;-141.02;100.00;81026.72;5091662;28;20189;-65
2023/12/29 06:24:00;;;;;;;10.90;10.60;;;;;;;-141.02;100.00;81275.25;5094043;28;20226;-64
2023/12/29 06:26:27;;;;;;;10.07;9.77;;;;;;;-141.02;100.00;81275.25;5095447;28;20251;-65
2023/12/29 06:28:54;;;;;;;10.17;9.87;;;;;;;-141.02;100.00;81772.31;5095752;28;20283;-65
2023/12/29 06:31:21;;;;;;;9.57;9.27;;;;;;;-141.02;100.00;82766.69;5095407;28;20189;-65
2023/12/29 06:33:48;;;;;;;10.07;9.77;;;;;;;-141.02;100.00;83263.97;5095277;28;20692;-64
2023/12/29 06:36:15;;;;;;;10.33;10.03;;;;;;;-141.02;100.00;84258.75;5095241;28;20692;-65
2023/12/29 06:38:48;;;;;;;11.70;11.40;;;;;;;-141.02;100.00;85751.50;5095550;28;20234;-65
2023/12/29 06:41:16;;;;;;;10.57;10.27;;;;;;;-141.02;100.00;86249.22;5095727;28;20190;-66
2023/12/29 06:43:43;;;;;;;9.23;9.03;;;;;;;-141.02;100.00;86498.09;5095130;28;20682;-65
2023/12/29 06:46:12;;;;;;;10.67;10.37;;;;;;;-141.02;100.00;86498.09;5095109;28;20672;-65
2023/12/29 06:48:39;;;;;;;10.40;10.10;;;;;;;-141.02;100.00;86995.94;5095062;28;20200;-65
2023/12/29 06:51:06;;;;;;;10.20;9.90;;;;;;;-141.02;100.00;87742.81;5095291;28;20197;-65
2023/12/29 06:53:33;;;;;;;9.30;9.10;;;;;;;-141.02;100.00;88240.81;5094961;28;20190;-66
2023/12/29 06:56:00;;;;;;;9.33;9.10;;;;;;;-141.02;100.00;88489.84;5095154;28;20261;-66
2023/12/29 06:58:29;;;;;;;9.60;9.30;;;;;;;-141.02;100.00;88987.97;5095359;28;20190;-65
2023/12/29 07:00:56;;;;;;;9.80;9.50;;;;;;;-141.02;100.00;89237.03;5094865;28;20225;-65
2023/12/29 07:03:23;;;;;;;10.00;9.70;;;;;;;-141.02;100.00;89237.03;5095018;28;20565;-65
2023/12/29 07:05:50;;;;;;;10.63;10.33;;;;;;;-141.02;100.00;89486.16;5094720;28;20233;-65
2023/12/29 07:08:17;;;;;;;10.80;10.50;;;;;;;-141.02;100.00;89735.28;5095256;28;20230;-66
2023/12/29 07:10:44;;;;;;;10.63;10.33;;;;;;;-141.02;100.00;89735.28;5094874;28;20237;-65
2023/12/29 07:13:10;;;;;;;10.80;10.50;;;;;;;-141.02;100.00;89984.41;5094589;28;20229;-65
2023/12/29 07:15:39;;;;;;;10.80;10.50;;;;;;;-141.02;100.00;90233.56;5094475;28;20261;-65
2023/12/29 07:18:06;;;;;;;11.70;11.40;;;;;;;-141.02;100.00;90482.72;5094809;28;20197;-66
2023/12/29 07:20:33;;;;;;;12.70;12.30;;;;;;;-141.02;100.00;90731.94;5094465;28;20251;-66
2023/12/29 07:23:01;;;;;;;13.50;13.10;;;;;;;-141.02;100.00;90731.94;5094349;28;20197;-65
2023/12/29 07:25:29;;;;;;;12.87;12.47;;;;;;;-141.02;100.00;90731.94;5095343;28;20276;-66
2023/12/29 07:27:56;;;;;;;11.87;11.47;;;;;;;-141.02;100.00;89984.41;5094428;28;20287;-66
2023/12/29 07:30:23;;;;;;;12.00;11.60;;;;;;;-141.02;100.00;89486.16;5094577;28;20226;-66
2023/12/29 07:32:51;;;;;;;11.00;10.70;;;;;;;-141.02;100.00;88489.84;5094979;28;20315;-66
2023/12/29 07:35:19;;;;;;;11.27;10.97;;;;;;;-141.02;100.00;87742.81;5093655;28;20280;-66
2023/12/29 07:37:46;;;;;;;11.70;11.40;;;;;;;-141.02;100.00;86498.09;5094382;28;20271;-66
2023/12/29 07:40:14;;;;;;;11.43;11.13;;;;;;;-141.02;100.00;84010.03;5094618;28;20229;-66
2023/12/29 07:42:43;;;;;;;12.07;11.67;;;;;;;-141.02;100.00;81026.72;5094215;28;20251;-66
2023/12/29 07:45:10;;;;;;;10.60;10.30;;;;;;;-141.02;100.00;77301.22;5094494;28;20190;-66
2023/12/29 07:47:37;;;;;;;12.20;11.80;;;;;;;-141.02;100.00;70357.75;5093929;28;20230;-67
2023/12/29 07:50:06;;;;;;;12.50;12.10;;;;;;;-141.02;100.00;64664.72;5094210;28;20194;-68
2023/12/29 07:52:33;;;;;;;13.70;13.30;;;;;;;-141.02;100.00;58981.19;5093773;28;20200;-68
2023/12/29 07:55:00;;;;;;;13.80;13.30;;;;;;;-141.02;100.00;58734.28;5093698;28;20229;-68
2023/12/29 07:57:27;;;;;;;12.90;12.50;;;;;;;-141.02;100.00;53725.03;5093983;28;20272;-69
2023/12/29 07:59:55;;;;;;;11.20;10.90;;;;;;;-141.02;100.00;49077.06;5093949;28;20190;-69
2023/12/29 08:02:22;;;;;;;15.67;15.17;;;;;;;-141.02;100.00;46637.25;5093581;28;20198;-69
2023/12/29 08:04:49;;;;;;;17.17;16.57;;;;;;;-141.02;100.00;45828.22;5093842;28;20201;-70
2023/12/29 08:07:17;;;;;;;16.63;16.03;;;;;;;-141.02;100.00;45868.59;5093936;28;20285;-70
2023/12/29 08:09:45;;;;;;;15.60;15.10;;;;;;;-141.02;100.00;45201.91;5094579;28;20220;-70
2023/12/29 08:12:12;;;;;;;17.10;16.40;;;;;;;-141.02;100.00;44416.25;5093355;28;20561;-70
2023/12/29 08:14:39;;;;;;;17.90;17.20;;;;;;;-141.02;100.00;43926.53;5093236;28;20735;-70
2023/12/29 08:17:06;;;;;;;16.30;15.70;;;;;;;-141.02;100.00;45176.94;5093292;28;20660;-70
2023/12/29 08:19:33;;;;;;;14.97;14.47;;;;;;;-141.02;100.00;44468.13;5093298;28;20233;-69
2023/12/29 08:22:00;;;;;;;14.17;13.67;;;;;;;-141.02;100.00;44055.19;5093470;28;20276;-69
2023/12/29 08:24:29;;;;;;;13.67;13.17;;;;;;;-141.02;100.00;43496.41;5093524;28;20197;-69
2023/12/29 08:26:56;;;;;;;14.00;13.50;;;;;;;-141.02;100.00;43431.13;5093155;28;20739;-69
2023/12/29 08:29:25;;;;;;;15.10;14.50;;;;;;;-141.02;100.00;42601.72;5093629;28;20210;-70
2023/12/29 08:31:52;;;;;;;15.10;14.50;;;;;;;-141.02;100.00;42594.06;5093077;28;20679;-69
2023/12/29 08:34:19;;;;;;;15.53;14.93;;;;;;;-141.02;100.00;42425.13;5093366;28;20250;-70
2023/12/29 08:36:46;;;;;;;16.20;15.50;;;;;;;-141.02;100.00;42187.13;5092953;28;20225;-69
2023/12/29 08:39:13;;;;;;;16.10;15.40;;;;;;;-141.02;100.00;42171.78;5092945;28;20204;-69
2023/12/29 08:41:41;;;;;;;15.00;14.40;;;;;;;-141.02;100.00;42171.78;5093203;28;20233;-69
2023/12/29 08:44:08;;;;;;;37.30;35.47;;;;;;;-141.02;100.00;42286.94;5093136;28;20200;-68
2023/12/29 08:46:35;;;;;;;13.90;13.40;;;;;;;-141.02;100.00;42390.59;5092199;28;20196;-69
2023/12/29 08:49:02;;;;;;;15.30;14.60;;;;;;;-141.02;100.00;42250.47;5093104;28;20284;-69
2023/12/29 08:51:29;;;;;;;16.50;15.80;;;;;;;-141.02;100.00;42185.22;5092948;28;20644;-69
2023/12/29 08:53:56;;;;;;;17.20;16.40;;;;;;;-141.02;100.00;42139.13;5093000;28;20194;-69
2023/12/29 08:56:23;;;;;;;17.97;17.07;;;;;;;-141.02;100.00;42048.94;5092771;28;20235;-69
2023/12/29 08:58:52;;;;;;;16.40;15.70;;;;;;;-141.02;100.00;42056.59;5092867;28;20648;-70
2023/12/29 09:01:19;;;;;;;16.20;15.50;;;;;;;-141.02;100.00;41987.50;5092759;28;20201;-70
2023/12/29 09:03:47;;;;;;;15.70;15.00;;;;;;;-141.02;100.00;41914.59;5092531;28;20602;-69
2023/12/29 09:06:14;;;;;;;15.30;14.60;;;;;;;-141.02;100.00;41949.13;5092791;28;20244;-69
2023/12/29 09:08:41;;;;;;;15.37;14.67;;;;;;;-141.02;100.00;41937.63;5092396;28;20735;-70
2023/12/29 09:11:08;;;;;;;15.47;14.77;;;;;;;-141.02;100.00;42004.78;5092633;28;20200;-70
2023/12/29 09:13:35;;;;;;;15.90;15.20;;;;;;;-141.02;100.00;41939.53;5092594;28;20644;-70
2023/12/29 09:16:03;;;;;;;15.70;15.00;;;;;;;-141.02;100.00;41916.50;5092553;28;20225;-70
2023/12/29 09:18:31;;;;;;;16.70;15.90;;;;;;;-141.02;100.00;41883.88;5092306;28;20200;-70
2023/12/29 09:20:57;;;;;;;15.90;15.10;;;;;;;-141.02;100.00;41918.41;5092255;28;20198;-71
2023/12/29 09:23:24;;;;;;;16.70;15.80;;;;;;;-141.02;100.00;41801.34;5092237;28;20200;-70
2023/12/29 09:25:51;;;;;;;28.53;26.97;;;;;;;-141.02;100.00;41929.94;5092127;28;20288;-71
2023/12/29 09:28:19;;;;;;;16.77;15.87;;;;;;;-141.02;100.00;41799.44;5092148;28;20707;-70
2023/12/29 09:30:45;;;;;;;16.20;15.30;;;;;;;-141.02;100.00;41910.75;5092405;28;20197;-70
2023/12/29 09:33:14;;;;;;;16.57;15.67;;;;;;;-141.02;100.00;41847.41;5092158;28;20652;-70
2023/12/29 09:35:41;;;;;;;16.10;15.30;;;;;;;-141.02;100.00;41876.19;5092000;28;20228;-70
2023/12/29 09:38:09;;;;;;;15.73;14.93;;;;;;;-141.02;100.00;41880.03;5092313;28;20262;-71
2023/12/29 09:40:37;;;;;;;15.50;14.70;;;;;;;-141.02;100.00;41880.03;5092376;28;20204;-70
2023/12/29 09:43:05;;;;;;;15.70;14.90;;;;;;;-141.02;100.00;41974.06;5092250;28;20198;-71
2023/12/29 09:45:34;;;;;;;15.70;14.90;;;;;;;-141.02;100.00;41931.84;5091933;28;20204;-70
2023/12/29 09:48:02;;;;;;;15.90;15.00;;;;;;;-141.02;100.00;42060.44;5091902;28;20201;-70
2023/12/29 09:50:31;;;;;;;16.43;15.43;;;;;;;-141.02;100.00;42100.75;5091877;28;20194;-71
2023/12/29 09:53:00;;;;;;;17.27;16.17;;;;;;;-141.02;100.00;42025.91;5092124;28;20684;-71
2023/12/29 09:55:28;;;;;;;17.70;16.50;;;;;;;-141.02;100.00;42056.59;5091828;28;20229;-70
2023/12/29 09:57:56;;;;;;;18.73;17.33;;;;;;;-141.02;100.00;41929.94;5092928;28;20272;-70
2023/12/29 10:00:23;;;;;;;19.20;17.70;;;;;;;-141.02;100.00;41903.06;5096011;28;20789;-70
2023/12/29 10:02:54;;;;;;;19.85;18.25;;;;;;;-141.02;100.00;41768.72;5096280;28;20205;-71
2023/12/29 10:05:21;;;;;;;20.67;18.97;;;;;;;-141.02;100.00;41695.81;5096222;28;20186;-71
2023/12/29 10:07:50;;;;;;;20.00;18.40;;;;;;;-141.02;100.00;41630.56;5096189;28;20209;-70
2023/12/29 10:10:18;;;;;;;19.27;17.77;;;;;;;-141.02;100.00;41597.94;5096083;28;20200;-71
2023/12/29 10:12:48;;;;;;;20.27;18.67;;;;;;;-141.02;100.00;41619.03;5096039;28;20194;-70
2023/12/29 10:15:21;;;;;;;18.80;17.40;;;;;;;-141.02;100.00;41691.97;5095970;28;20191;-70
2023/12/29 10:17:53;;;;;;;19.80;18.30;;;;;;;-141.02;100.00;41684.28;5095673;28;20564;-70
2023/12/29 10:20:34;;;;;;;19.20;17.70;;;;;;;-141.02;100.00;41693.88;5096608;28;20186;-70
2023/12/29 10:23:12;;;;;;;19.80;18.20;;;;;;;-141.02;100.00;41680.44;5095855;28;20190;-70
2023/12/29 10:25:40;;;;;;;21.63;19.90;;;;;;;-141.02;100.00;41734.19;5095881;28;20276;-70
2023/12/29 10:28:07;;;;;;;20.40;18.70;;;;;;;-141.02;100.00;41715.00;5095292;28;20233;-68
2023/12/29 10:30:35;;;;;;;20.80;19.10;;;;;;;-141.02;100.00;41780.25;5095394;28;20194;-70
2023/12/29 10:33:03;;;;;;;21.08;19.38;;;;;;;-141.02;100.00;41624.78;5095685;28;20190;-70
2023/12/29 10:35:31;;;;;;;20.98;19.27;;;;;;;-141.02;100.00;41657.41;5095537;28;20253;-70
2023/12/29 10:38:11;;;;;;;21.30;19.60;;;;;;;-141.02;100.00;41588.34;5095788;28;20202;-70
2023/12/29 10:40:38;;;;;;;21.20;19.50;;;;;;;-141.02;100.00;41580.66;5096110;28;20200;-70
2023/12/29 10:43:07;;;;;;;20.25;18.65;;;;;;;-141.02;100.00;41642.06;5095186;28;20675;-71
2023/12/29 10:45:34;;;;;;;20.98;19.27;;;;;;;-141.02;100.00;41693.88;5095159;28;20247;-71
2023/12/29 10:48:02;;;;;;;21.63;19.83;;;;;;;-141.02;100.00;41688.13;5095377;28;20194;-70
2023/12/29 10:50:29;;;;;;;22.15;20.25;;;;;;;-141.02;100.00;41691.97;5095384;28;20201;-70
2023/12/29 10:53:16;;;;;;;22.50;20.60;;;;;;;-141.02;100.00;41726.50;5095663;28;20200;-70
2023/12/29 10:55:43;;;;;;;23.27;21.27;;;;;;;-141.02;100.00;41786.00;5095771;28;20209;-71
2023/12/29 10:58:10;;;;;;;23.30;21.30;;;;;;;-141.02;100.00;41686.19;5094852;28;20288;-71